sensor_id;sensor_type;location;lat;lon;timestamp;P1;durP1;ratioP1;P2;durP2;ratioP2
2644;SDS011;15377;48.540;9.268;2023-05-17T00:01:15;5.90;;;2.60;;
2644;SDS011;15377;48.540;9.268;2023-05-17T00:03:41;6.67;;;2.80;;
2644;SDS011;15377;48.540;9.268;2023-05-17T00:06:06;7.07;;;2.50;;
2644;SDS011;15377;48.540;9.268;2023-05-17T00:08:31;6.40;;;2.93;;
2644;SDS011;15377;48.540;9.268;2023-05-17T00:10:57;6.43;;;2.30;;
2644;SDS011;15377;48.540;9.268;2023-05-17T00:13:22;6.83;;;2.90;;
2644;SDS011;15377;48.540;9.268;2023-05-17T00:15:47;6.27;;;2.97;;
2644;SDS011;15377;48.540;9.268;2023-05-17T00:18:13;5.80;;;2.93;;
2644;SDS011;15377;48.540;9.268;2023-05-17T00:20:38;5.37;;;2.20;;
2644;SDS011;15377;48.540;9.268;2023-05-17T00:23:03;7.33;;;2.67;;
2644;SDS011;15377;48.540;9.268;2023-05-17T00:25:29;6.00;;;2.43;;
2644;SDS011;15377;48.540;9.268;2023-05-17T00:27:54;9.00;;;3.40;;
2644;SDS011;15377;48.540;9.268;2023-05-17T00:30:19;5.80;;;2.83;;
2644;SDS011;15377;48.540;9.268;2023-05-17T00:32:45;5.60;;;2.47;;
2644;SDS011;15377;48.540;9.268;2023-05-17T00:35:11;6.32;;;2.78;;
2644;SDS011;15377;48.540;9.268;2023-05-17T00:37:36;6.00;;;2.60;;
2644;SDS011;15377;48.540;9.268;2023-05-17T00:40:04;5.93;;;2.40;;
2644;SDS011;15377;48.540;9.268;2023-05-17T00:42:30;6.13;;;2.77;;
2644;SDS011;15377;48.540;9.268;2023-05-17T00:44:55;6.23;;;4.20;;
2644;SDS011;15377;48.540;9.268;2023-05-17T00:47:21;5.60;;;2.50;;
2644;SDS011;15377;48.540;9.268;2023-05-17T00:49:46;6.50;;;2.47;;
2644;SDS011;15377;48.540;9.268;2023-05-17T00:52:12;6.27;;;2.60;;
2644;SDS011;15377;48.540;9.268;2023-05-17T00:54:38;6.77;;;2.40;;
2644;SDS011;15377;48.540;9.268;2023-05-17T00:57:04;5.93;;;2.75;;
2644;SDS011;15377;48.540;9.268;2023-05-17T00:59:29;7.17;;;2.10;;
2644;SDS011;15377;48.540;9.268;2023-05-17T01:01:55;5.50;;;2.10;;
2644;SDS011;15377;48.540;9.268;2023-05-17T01:04:21;5.63;;;2.40;;
2644;SDS011;15377;48.540;9.268;2023-05-17T01:06:46;5.80;;;2.30;;
2644;SDS011;15377;48.540;9.268;2023-05-17T01:09:11;7.30;;;2.40;;
2644;SDS011;15377;48.540;9.268;2023-05-17T01:11:55;5.90;;;2.50;;
2644;SDS011;15377;48.540;9.268;2023-05-17T01:17:39;6.07;;;2.33;;
2644;SDS011;15377;48.540;9.268;2023-05-17T01:20:26;5.40;;;2.30;;
2644;SDS011;15377;48.540;9.268;2023-05-17T01:25:53;6.60;;;2.40;;
2644;SDS011;15377;48.540;9.268;2023-05-17T01:28:20;6.28;;;2.17;;
2644;SDS011;15377;48.540;9.268;2023-05-17T01:30:49;11.68;;;3.25;;
2644;SDS011;15377;48.540;9.268;2023-05-17T01:33:16;5.80;;;2.40;;
2644;SDS011;15377;48.540;9.268;2023-05-17T01:35:43;5.20;;;2.10;;
2644;SDS011;15377;48.540;9.268;2023-05-17T01:38:11;6.95;;;2.30;;
2644;SDS011;15377;48.540;9.268;2023-05-17T01:40:38;6.27;;;2.20;;
2644;SDS011;15377;48.540;9.268;2023-05-17T01:43:11;6.57;;;2.85;;
2644;SDS011;15377;48.540;9.268;2023-05-17T01:45:45;5.50;;;2.35;;
2644;SDS011;15377;48.540;9.268;2023-05-17T01:48:18;7.65;;;2.50;;
2644;SDS011;15377;48.540;9.268;2023-05-17T01:50:47;8.55;;;3.35;;
2644;SDS011;15377;48.540;9.268;2023-05-17T01:53:59;7.10;;;2.42;;
2644;SDS011;15377;48.540;9.268;2023-05-17T01:56:08;6.50;;;2.65;;
2644;SDS011;15377;48.540;9.268;2023-05-17T01:58:42;7.68;;;2.15;;
2644;SDS011;15377;48.540;9.268;2023-05-17T02:01:13;6.03;;;2.40;;
2644;SDS011;15377;48.540;9.268;2023-05-17T02:03:39;6.07;;;2.80;;
2644;SDS011;15377;48.540;9.268;2023-05-17T02:06:05;6.10;;;2.40;;
2644;SDS011;15377;48.540;9.268;2023-05-17T02:08:30;6.20;;;2.33;;
2644;SDS011;15377;48.540;9.268;2023-05-17T02:10:55;6.23;;;2.53;;
2644;SDS011;15377;48.540;9.268;2023-05-17T02:13:21;5.40;;;2.37;;
2644;SDS011;15377;48.540;9.268;2023-05-17T02:15:46;5.50;;;2.20;;
2644;SDS011;15377;48.540;9.268;2023-05-17T02:18:11;5.80;;;2.40;;
2644;SDS011;15377;48.540;9.268;2023-05-17T02:20:37;5.60;;;1.97;;
2644;SDS011;15377;48.540;9.268;2023-05-17T02:23:02;6.10;;;2.50;;
2644;SDS011;15377;48.540;9.268;2023-05-17T02:25:28;6.23;;;2.87;;
2644;SDS011;15377;48.540;9.268;2023-05-17T02:27:53;6.20;;;2.93;;
2644;SDS011;15377;48.540;9.268;2023-05-17T02:30:18;6.70;;;3.00;;
2644;SDS011;15377;48.540;9.268;2023-05-17T02:32:46;5.85;;;2.50;;
2644;SDS011;15377;48.540;9.268;2023-05-17T02:35:12;6.80;;;2.67;;
2644;SDS011;15377;48.540;9.268;2023-05-17T02:37:37;6.70;;;3.07;;
2644;SDS011;15377;48.540;9.268;2023-05-17T02:40:03;6.63;;;2.47;;
2644;SDS011;15377;48.540;9.268;2023-05-17T02:42:33;6.80;;;2.60;;
2644;SDS011;15377;48.540;9.268;2023-05-17T02:44:58;6.07;;;2.50;;
2644;SDS011;15377;48.540;9.268;2023-05-17T02:47:23;6.83;;;2.50;;
2644;SDS011;15377;48.540;9.268;2023-05-17T02:49:49;6.80;;;2.53;;
2644;SDS011;15377;48.540;9.268;2023-05-17T02:52:14;5.90;;;2.60;;
2644;SDS011;15377;48.540;9.268;2023-05-17T02:54:40;6.37;;;3.07;;
2644;SDS011;15377;48.540;9.268;2023-05-17T02:57:07;6.68;;;2.45;;
2644;SDS011;15377;48.540;9.268;2023-05-17T02:59:33;6.73;;;2.60;;
2644;SDS011;15377;48.540;9.268;2023-05-17T03:01:58;6.13;;;2.30;;
2644;SDS011;15377;48.540;9.268;2023-05-17T03:04:23;5.83;;;2.70;;
2644;SDS011;15377;48.540;9.268;2023-05-17T03:06:49;7.07;;;3.23;;
2644;SDS011;15377;48.540;9.268;2023-05-17T03:09:14;6.10;;;2.20;;
2644;SDS011;15377;48.540;9.268;2023-05-17T03:11:40;6.60;;;3.00;;
2644;SDS011;15377;48.540;9.268;2023-05-17T03:14:05;6.13;;;2.77;;
2644;SDS011;15377;48.540;9.268;2023-05-17T03:16:30;5.53;;;2.40;;
2644;SDS011;15377;48.540;9.268;2023-05-17T03:18:56;5.67;;;2.30;;
2644;SDS011;15377;48.540;9.268;2023-05-17T03:21:21;6.50;;;3.00;;
2644;SDS011;15377;48.540;9.268;2023-05-17T03:23:46;6.37;;;3.20;;
2644;SDS011;15377;48.540;9.268;2023-05-17T03:26:12;6.73;;;2.70;;
2644;SDS011;15377;48.540;9.268;2023-05-17T03:28:37;7.20;;;2.93;;
2644;SDS011;15377;48.540;9.268;2023-05-17T03:31:02;5.67;;;2.30;;
2644;SDS011;15377;48.540;9.268;2023-05-17T03:33:28;7.90;;;2.53;;
2644;SDS011;15377;48.540;9.268;2023-05-17T03:35:53;6.90;;;2.57;;
2644;SDS011;15377;48.540;9.268;2023-05-17T03:38:18;6.23;;;2.83;;
2644;SDS011;15377;48.540;9.268;2023-05-17T03:40:44;6.37;;;3.00;;
2644;SDS011;15377;48.540;9.268;2023-05-17T03:43:09;6.57;;;2.90;;
2644;SDS011;15377;48.540;9.268;2023-05-17T03:45:34;6.40;;;2.53;;
2644;SDS011;15377;48.540;9.268;2023-05-17T03:48:00;5.90;;;2.93;;
2644;SDS011;15377;48.540;9.268;2023-05-17T03:50:25;6.47;;;2.73;;
2644;SDS011;15377;48.540;9.268;2023-05-17T03:52:50;9.10;;;2.93;;
2644;SDS011;15377;48.540;9.268;2023-05-17T03:55:16;6.07;;;2.67;;
2644;SDS011;15377;48.540;9.268;2023-05-17T03:57:41;6.30;;;2.80;;
2644;SDS011;15377;48.540;9.268;2023-05-17T04:00:06;5.50;;;2.67;;
2644;SDS011;15377;48.540;9.268;2023-05-17T04:02:36;6.20;;;2.92;;
2644;SDS011;15377;48.540;9.268;2023-05-17T04:05:02;7.37;;;3.10;;
2644;SDS011;15377;48.540;9.268;2023-05-17T04:07:27;5.70;;;2.53;;
2644;SDS011;15377;48.540;9.268;2023-05-17T04:09:54;6.83;;;3.20;;
2644;SDS011;15377;48.540;9.268;2023-05-17T04:12:23;6.63;;;2.50;;
2644;SDS011;15377;48.540;9.268;2023-05-17T04:14:48;7.10;;;3.13;;
2644;SDS011;15377;48.540;9.268;2023-05-17T04:17:14;8.60;;;3.00;;
2644;SDS011;15377;48.540;9.268;2023-05-17T04:19:39;6.30;;;2.60;;
2644;SDS011;15377;48.540;9.268;2023-05-17T04:22:04;5.90;;;2.90;;
2644;SDS011;15377;48.540;9.268;2023-05-17T04:24:30;6.90;;;3.00;;
2644;SDS011;15377;48.540;9.268;2023-05-17T04:26:55;7.10;;;3.40;;
2644;SDS011;15377;48.540;9.268;2023-05-17T04:29:21;6.80;;;2.97;;
2644;SDS011;15377;48.540;9.268;2023-05-17T04:31:46;6.17;;;2.80;;
2644;SDS011;15377;48.540;9.268;2023-05-17T04:34:13;8.02;;;3.03;;
2644;SDS011;15377;48.540;9.268;2023-05-17T04:36:38;7.37;;;2.50;;
2644;SDS011;15377;48.540;9.268;2023-05-17T04:39:03;6.33;;;3.13;;
2644;SDS011;15377;48.540;9.268;2023-05-17T04:41:29;6.00;;;3.00;;
2644;SDS011;15377;48.540;9.268;2023-05-17T04:43:55;7.57;;;3.03;;
2644;SDS011;15377;48.540;9.268;2023-05-17T04:46:21;6.80;;;3.13;;
2644;SDS011;15377;48.540;9.268;2023-05-17T04:48:47;8.90;;;4.20;;
2644;SDS011;15377;48.540;9.268;2023-05-17T04:51:12;9.10;;;3.20;;
2644;SDS011;15377;48.540;9.268;2023-05-17T04:53:37;7.33;;;2.93;;
2644;SDS011;15377;48.540;9.268;2023-05-17T04:56:03;7.57;;;3.90;;
2644;SDS011;15377;48.540;9.268;2023-05-17T04:58:28;6.93;;;3.37;;
2644;SDS011;15377;48.540;9.268;2023-05-17T05:00:54;6.93;;;3.40;;
2644;SDS011;15377;48.540;9.268;2023-05-17T05:03:21;7.07;;;4.13;;
2644;SDS011;15377;48.540;9.268;2023-05-17T05:05:46;8.27;;;4.10;;
2644;SDS011;15377;48.540;9.268;2023-05-17T05:08:12;7.97;;;4.60;;
2644;SDS011;15377;48.540;9.268;2023-05-17T05:10:37;7.23;;;3.47;;
2644;SDS011;15377;48.540;9.268;2023-05-17T05:13:02;9.43;;;3.90;;
2644;SDS011;15377;48.540;9.268;2023-05-17T05:15:28;7.07;;;4.10;;
2644;SDS011;15377;48.540;9.268;2023-05-17T05:17:53;7.77;;;4.17;;
2644;SDS011;15377;48.540;9.268;2023-05-17T05:20:18;9.00;;;3.93;;
2644;SDS011;15377;48.540;9.268;2023-05-17T05:22:44;6.77;;;3.37;;
2644;SDS011;15377;48.540;9.268;2023-05-17T05:25:09;8.73;;;3.97;;
2644;SDS011;15377;48.540;9.268;2023-05-17T05:27:35;7.10;;;4.40;;
2644;SDS011;15377;48.540;9.268;2023-05-17T05:30:00;11.20;;;5.43;;
2644;SDS011;15377;48.540;9.268;2023-05-17T05:32:26;11.48;;;4.15;;
2644;SDS011;15377;48.540;9.268;2023-05-17T05:34:52;7.73;;;4.10;;
2644;SDS011;15377;48.540;9.268;2023-05-17T05:37:17;7.60;;;4.27;;
2644;SDS011;15377;48.540;9.268;2023-05-17T05:39:45;7.47;;;3.70;;
2644;SDS011;15377;48.540;9.268;2023-05-17T05:42:11;10.23;;;4.70;;
2644;SDS011;15377;48.540;9.268;2023-05-17T05:44:36;6.90;;;3.87;;
2644;SDS011;15377;48.540;9.268;2023-05-17T05:47:02;11.10;;;4.20;;
2644;SDS011;15377;48.540;9.268;2023-05-17T05:49:27;7.80;;;4.20;;
2644;SDS011;15377;48.540;9.268;2023-05-17T05:51:53;8.00;;;4.07;;
2644;SDS011;15377;48.540;9.268;2023-05-17T05:54:18;7.10;;;3.10;;
2644;SDS011;15377;48.540;9.268;2023-05-17T05:56:44;6.60;;;3.13;;
2644;SDS011;15377;48.540;9.268;2023-05-17T05:59:09;7.40;;;3.50;;
2644;SDS011;15377;48.540;9.268;2023-05-17T06:01:35;8.60;;;3.30;;
2644;SDS011;15377;48.540;9.268;2023-05-17T06:04:01;8.17;;;3.30;;
2644;SDS011;15377;48.540;9.268;2023-05-17T06:06:26;8.90;;;3.70;;
2644;SDS011;15377;48.540;9.268;2023-05-17T06:08:52;7.13;;;2.80;;
2644;SDS011;15377;48.540;9.268;2023-05-17T06:11:17;5.67;;;2.40;;
2644;SDS011;15377;48.540;9.268;2023-05-17T06:13:44;7.23;;;2.70;;
2644;SDS011;15377;48.540;9.268;2023-05-17T06:16:10;6.40;;;2.80;;
2644;SDS011;15377;48.540;9.268;2023-05-17T06:18:35;6.30;;;2.50;;
2644;SDS011;15377;48.540;9.268;2023-05-17T06:21:00;6.20;;;2.87;;
2644;SDS011;15377;48.540;9.268;2023-05-17T06:23:26;5.60;;;2.27;;
2644;SDS011;15377;48.540;9.268;2023-05-17T06:25:51;6.30;;;2.60;;
2644;SDS011;15377;48.540;9.268;2023-05-17T06:28:16;7.90;;;2.73;;
2644;SDS011;15377;48.540;9.268;2023-05-17T06:30:42;8.03;;;2.60;;
2644;SDS011;15377;48.540;9.268;2023-05-17T06:33:07;6.47;;;2.30;;
2644;SDS011;15377;48.540;9.268;2023-05-17T06:35:33;8.70;;;3.03;;
2644;SDS011;15377;48.540;9.268;2023-05-17T06:37:59;6.37;;;2.40;;
2644;SDS011;15377;48.540;9.268;2023-05-17T06:40:24;10.83;;;2.43;;
2644;SDS011;15377;48.540;9.268;2023-05-17T06:42:49;6.03;;;2.13;;
2644;SDS011;15377;48.540;9.268;2023-05-17T06:45:15;6.50;;;2.40;;
2644;SDS011;15377;48.540;9.268;2023-05-17T06:47:40;6.67;;;2.50;;
2644;SDS011;15377;48.540;9.268;2023-05-17T06:50:06;7.70;;;2.63;;
2644;SDS011;15377;48.540;9.268;2023-05-17T06:52:32;7.07;;;2.50;;
2644;SDS011;15377;48.540;9.268;2023-05-17T06:54:58;5.57;;;2.10;;
2644;SDS011;15377;48.540;9.268;2023-05-17T06:57:24;6.33;;;2.43;;
2644;SDS011;15377;48.540;9.268;2023-05-17T06:59:49;7.40;;;2.57;;
2644;SDS011;15377;48.540;9.268;2023-05-17T07:02:16;5.73;;;2.30;;
2644;SDS011;15377;48.540;9.268;2023-05-17T07:04:41;6.73;;;2.53;;
2644;SDS011;15377;48.540;9.268;2023-05-17T07:07:07;7.07;;;2.40;;
2644;SDS011;15377;48.540;9.268;2023-05-17T07:09:32;5.40;;;2.07;;
2644;SDS011;15377;48.540;9.268;2023-05-17T07:11:57;5.63;;;2.20;;
2644;SDS011;15377;48.540;9.268;2023-05-17T07:14:23;5.47;;;2.37;;
2644;SDS011;15377;48.540;9.268;2023-05-17T07:16:48;7.10;;;2.17;;
2644;SDS011;15377;48.540;9.268;2023-05-17T07:19:13;7.37;;;2.27;;
2644;SDS011;15377;48.540;9.268;2023-05-17T07:21:39;7.40;;;2.40;;
2644;SDS011;15377;48.540;9.268;2023-05-17T07:24:05;6.60;;;2.43;;
2644;SDS011;15377;48.540;9.268;2023-05-17T07:26:31;5.87;;;2.30;;
2644;SDS011;15377;48.540;9.268;2023-05-17T07:28:56;5.70;;;2.27;;
2644;SDS011;15377;48.540;9.268;2023-05-17T07:31:21;9.50;;;2.40;;
2644;SDS011;15377;48.540;9.268;2023-05-17T07:33:47;6.73;;;2.20;;
2644;SDS011;15377;48.540;9.268;2023-05-17T07:36:12;5.90;;;2.43;;
2644;SDS011;15377;48.540;9.268;2023-05-17T07:38:37;6.80;;;2.57;;
2644;SDS011;15377;48.540;9.268;2023-05-17T07:41:03;6.40;;;2.27;;
2644;SDS011;15377;48.540;9.268;2023-05-17T07:43:33;6.00;;;2.20;;
2644;SDS011;15377;48.540;9.268;2023-05-17T07:46:00;5.93;;;2.60;;
2644;SDS011;15377;48.540;9.268;2023-05-17T07:48:25;7.53;;;2.73;;
2644;SDS011;15377;48.540;9.268;2023-05-17T07:50:51;6.10;;;2.23;;
2644;SDS011;15377;48.540;9.268;2023-05-17T07:53:16;5.17;;;2.27;;
2644;SDS011;15377;48.540;9.268;2023-05-17T07:55:41;7.43;;;2.50;;
2644;SDS011;15377;48.540;9.268;2023-05-17T07:58:08;6.47;;;2.77;;
2644;SDS011;15377;48.540;9.268;2023-05-17T08:00:34;5.77;;;2.47;;
2644;SDS011;15377;48.540;9.268;2023-05-17T08:03:00;5.80;;;2.60;;
2644;SDS011;15377;48.540;9.268;2023-05-17T08:05:25;7.43;;;2.40;;
2644;SDS011;15377;48.540;9.268;2023-05-17T08:07:51;6.77;;;2.40;;
2644;SDS011;15377;48.540;9.268;2023-05-17T08:10:17;6.50;;;2.63;;
2644;SDS011;15377;48.540;9.268;2023-05-17T08:12:42;6.77;;;2.73;;
2644;SDS011;15377;48.540;9.268;2023-05-17T08:15:08;5.80;;;2.47;;
2644;SDS011;15377;48.540;9.268;2023-05-17T08:17:34;5.70;;;2.47;;
2644;SDS011;15377;48.540;9.268;2023-05-17T08:19:59;6.10;;;2.73;;
2644;SDS011;15377;48.540;9.268;2023-05-17T08:22:25;6.60;;;2.40;;
2644;SDS011;15377;48.540;9.268;2023-05-17T08:24:51;6.40;;;2.40;;
2644;SDS011;15377;48.540;9.268;2023-05-17T08:27:16;5.67;;;2.33;;
2644;SDS011;15377;48.540;9.268;2023-05-17T08:29:42;7.20;;;2.63;;
2644;SDS011;15377;48.540;9.268;2023-05-17T08:32:08;7.57;;;2.80;;
2644;SDS011;15377;48.540;9.268;2023-05-17T08:34:33;7.30;;;2.83;;
2644;SDS011;15377;48.540;9.268;2023-05-17T08:36:58;6.10;;;2.30;;
2644;SDS011;15377;48.540;9.268;2023-05-17T08:39:24;6.30;;;2.63;;
2644;SDS011;15377;48.540;9.268;2023-05-17T08:41:49;6.50;;;2.23;;
2644;SDS011;15377;48.540;9.268;2023-05-17T08:44:15;6.23;;;2.40;;
2644;SDS011;15377;48.540;9.268;2023-05-17T08:46:41;5.63;;;2.17;;
2644;SDS011;15377;48.540;9.268;2023-05-17T08:49:15;6.50;;;2.93;;
2644;SDS011;15377;48.540;9.268;2023-05-17T08:51:45;6.37;;;2.53;;
2644;SDS011;15377;48.540;9.268;2023-05-17T08:54:13;6.90;;;2.77;;
2644;SDS011;15377;48.540;9.268;2023-05-17T08:56:39;6.70;;;2.60;;
2644;SDS011;15377;48.540;9.268;2023-05-17T08:59:07;6.90;;;2.30;;
2644;SDS011;15377;48.540;9.268;2023-05-17T09:01:34;6.77;;;2.90;;
2644;SDS011;15377;48.540;9.268;2023-05-17T09:04:02;8.30;;;3.17;;
2644;SDS011;15377;48.540;9.268;2023-05-17T09:06:28;7.70;;;3.03;;
2644;SDS011;15377;48.540;9.268;2023-05-17T09:08:55;7.63;;;2.50;;
2644;SDS011;15377;48.540;9.268;2023-05-17T09:13:52;7.43;;;2.50;;
2644;SDS011;15377;48.540;9.268;2023-05-17T09:16:18;6.13;;;2.80;;
2644;SDS011;15377;48.540;9.268;2023-05-17T09:18:52;6.90;;;3.23;;
2644;SDS011;15377;48.540;9.268;2023-05-17T09:21:21;7.40;;;2.70;;
2644;SDS011;15377;48.540;9.268;2023-05-17T09:23:47;7.73;;;2.90;;
2644;SDS011;15377;48.540;9.268;2023-05-17T09:26:12;8.33;;;3.00;;
2644;SDS011;15377;48.540;9.268;2023-05-17T09:28:38;7.40;;;2.97;;
2644;SDS011;15377;48.540;9.268;2023-05-17T09:31:08;6.30;;;2.53;;
2644;SDS011;15377;48.540;9.268;2023-05-17T09:33:48;6.00;;;2.50;;
2644;SDS011;15377;48.540;9.268;2023-05-17T09:36:18;7.70;;;3.20;;
2644;SDS011;15377;48.540;9.268;2023-05-17T09:39:17;6.90;;;3.10;;
2644;SDS011;15377;48.540;9.268;2023-05-17T09:41:42;7.20;;;3.10;;
2644;SDS011;15377;48.540;9.268;2023-05-17T09:44:09;7.90;;;3.37;;
2644;SDS011;15377;48.540;9.268;2023-05-17T09:46:36;6.13;;;2.73;;
2644;SDS011;15377;48.540;9.268;2023-05-17T09:49:05;6.70;;;2.90;;
2644;SDS011;15377;48.540;9.268;2023-05-17T09:51:34;7.50;;;3.20;;
2644;SDS011;15377;48.540;9.268;2023-05-17T09:54:01;9.33;;;3.10;;
2644;SDS011;15377;48.540;9.268;2023-05-17T09:56:30;7.90;;;3.10;;
2644;SDS011;15377;48.540;9.268;2023-05-17T09:58:56;6.00;;;2.40;;
2644;SDS011;15377;48.540;9.268;2023-05-17T10:01:24;6.50;;;2.50;;
2644;SDS011;15377;48.540;9.268;2023-05-17T10:03:51;6.23;;;2.77;;
2644;SDS011;15377;48.540;9.268;2023-05-17T10:06:17;6.67;;;2.53;;
2644;SDS011;15377;48.540;9.268;2023-05-17T10:08:48;5.97;;;2.70;;
2644;SDS011;15377;48.540;9.268;2023-05-17T10:11:17;7.37;;;3.00;;
2644;SDS011;15377;48.540;9.268;2023-05-17T10:13:52;8.33;;;2.90;;
2644;SDS011;15377;48.540;9.268;2023-05-17T10:16:31;6.33;;;2.90;;
2644;SDS011;15377;48.540;9.268;2023-05-17T10:18:58;6.03;;;2.50;;
2644;SDS011;15377;48.540;9.268;2023-05-17T10:21:24;6.40;;;2.90;;
2644;SDS011;15377;48.540;9.268;2023-05-17T10:23:50;7.40;;;3.00;;
2644;SDS011;15377;48.540;9.268;2023-05-17T10:26:17;6.57;;;2.77;;
2644;SDS011;15377;48.540;9.268;2023-05-17T10:28:44;5.83;;;2.50;;
2644;SDS011;15377;48.540;9.268;2023-05-17T10:31:11;10.40;;;3.37;;
2644;SDS011;15377;48.540;9.268;2023-05-17T10:33:37;7.07;;;2.40;;
2644;SDS011;15377;48.540;9.268;2023-05-17T10:36:03;6.60;;;3.37;;
2644;SDS011;15377;48.540;9.268;2023-05-17T10:38:30;6.77;;;3.17;;
2644;SDS011;15377;48.540;9.268;2023-05-17T10:40:56;6.67;;;2.93;;
2644;SDS011;15377;48.540;9.268;2023-05-17T10:43:22;5.50;;;2.47;;
2644;SDS011;15377;48.540;9.268;2023-05-17T10:45:49;6.87;;;2.93;;
2644;SDS011;15377;48.540;9.268;2023-05-17T10:48:16;5.63;;;2.60;;
2644;SDS011;15377;48.540;9.268;2023-05-17T10:50:44;6.03;;;2.70;;
2644;SDS011;15377;48.540;9.268;2023-05-17T10:53:10;7.53;;;3.00;;
2644;SDS011;15377;48.540;9.268;2023-05-17T10:55:40;7.20;;;3.00;;
2644;SDS011;15377;48.540;9.268;2023-05-17T11:00:43;5.93;;;2.90;;
2644;SDS011;15377;48.540;9.268;2023-05-17T11:03:15;6.60;;;2.53;;
2644;SDS011;15377;48.540;9.268;2023-05-17T11:05:41;7.30;;;2.93;;
2644;SDS011;15377;48.540;9.268;2023-05-17T11:08:15;6.37;;;2.60;;
2644;SDS011;15377;48.540;9.268;2023-05-17T11:11:24;6.13;;;2.40;;
2644;SDS011;15377;48.540;9.268;2023-05-17T11:16:12;9.23;;;3.30;;
2644;SDS011;15377;48.540;9.268;2023-05-17T11:18:47;6.50;;;2.60;;
2644;SDS011;15377;48.540;9.268;2023-05-17T11:21:17;7.27;;;2.90;;
2644;SDS011;15377;48.540;9.268;2023-05-17T11:23:43;7.00;;;2.60;;
2644;SDS011;15377;48.540;9.268;2023-05-17T11:26:19;7.10;;;2.60;;
2644;SDS011;15377;48.540;9.268;2023-05-17T11:29:06;7.40;;;2.97;;
2644;SDS011;15377;48.540;9.268;2023-05-17T11:31:35;6.33;;;2.43;;
2644;SDS011;15377;48.540;9.268;2023-05-17T11:34:04;6.63;;;2.37;;
2644;SDS011;15377;48.540;9.268;2023-05-17T11:36:31;6.33;;;2.50;;
2644;SDS011;15377;48.540;9.268;2023-05-17T11:39:14;7.60;;;2.20;;
2644;SDS011;15377;48.540;9.268;2023-05-17T11:41:47;7.20;;;2.57;;
2644;SDS011;15377;48.540;9.268;2023-05-17T11:44:14;7.90;;;2.43;;
2644;SDS011;15377;48.540;9.268;2023-05-17T11:46:40;7.10;;;2.67;;
2644;SDS011;15377;48.540;9.268;2023-05-17T11:49:07;7.60;;;2.80;;
2644;SDS011;15377;48.540;9.268;2023-05-17T11:51:33;5.60;;;2.40;;
2644;SDS011;15377;48.540;9.268;2023-05-17T11:53:59;6.37;;;2.70;;
2644;SDS011;15377;48.540;9.268;2023-05-17T11:56:28;6.83;;;2.50;;
2644;SDS011;15377;48.540;9.268;2023-05-17T11:59:00;7.03;;;2.77;;
2644;SDS011;15377;48.540;9.268;2023-05-17T12:01:26;7.80;;;3.37;;
2644;SDS011;15377;48.540;9.268;2023-05-17T12:03:55;6.03;;;2.70;;
2644;SDS011;15377;48.540;9.268;2023-05-17T12:06:24;8.80;;;3.10;;
2644;SDS011;15377;48.540;9.268;2023-05-17T12:08:49;7.40;;;2.77;;
2644;SDS011;15377;48.540;9.268;2023-05-17T12:11:15;8.27;;;2.57;;
2644;SDS011;15377;48.540;9.268;2023-05-17T12:13:41;6.20;;;2.70;;
2644;SDS011;15377;48.540;9.268;2023-05-17T12:16:14;7.57;;;3.10;;
2644;SDS011;15377;48.540;9.268;2023-05-17T12:18:41;6.73;;;3.10;;
2644;SDS011;15377;48.540;9.268;2023-05-17T12:21:09;6.20;;;2.30;;
2644;SDS011;15377;48.540;9.268;2023-05-17T12:23:37;10.70;;;2.83;;
2644;SDS011;15377;48.540;9.268;2023-05-17T12:26:08;7.17;;;3.00;;
2644;SDS011;15377;48.540;9.268;2023-05-17T12:28:35;7.77;;;3.27;;
2644;SDS011;15377;48.540;9.268;2023-05-17T12:31:02;6.53;;;2.80;;
2644;SDS011;15377;48.540;9.268;2023-05-17T12:33:36;7.10;;;2.80;;
2644;SDS011;15377;48.540;9.268;2023-05-17T12:36:05;7.93;;;2.83;;
2644;SDS011;15377;48.540;9.268;2023-05-17T12:38:31;9.43;;;3.07;;
2644;SDS011;15377;48.540;9.268;2023-05-17T12:41:01;6.93;;;2.83;;
2644;SDS011;15377;48.540;9.268;2023-05-17T12:43:29;6.50;;;2.60;;
2644;SDS011;15377;48.540;9.268;2023-05-17T12:46:07;6.20;;;2.70;;
2644;SDS011;15377;48.540;9.268;2023-05-17T12:48:34;7.20;;;2.97;;
2644;SDS011;15377;48.540;9.268;2023-05-17T12:51:10;6.30;;;3.03;;
2644;SDS011;15377;48.540;9.268;2023-05-17T12:53:50;8.90;;;3.40;;
2644;SDS011;15377;48.540;9.268;2023-05-17T12:56:18;6.53;;;3.00;;
2644;SDS011;15377;48.540;9.268;2023-05-17T13:04:08;6.67;;;3.10;;
2644;SDS011;15377;48.540;9.268;2023-05-17T13:06:50;8.00;;;3.40;;
2644;SDS011;15377;48.540;9.268;2023-05-17T13:09:17;7.80;;;2.90;;
2644;SDS011;15377;48.540;9.268;2023-05-17T13:12:04;7.40;;;2.67;;
2644;SDS011;15377;48.540;9.268;2023-05-17T13:17:00;6.37;;;2.80;;
2644;SDS011;15377;48.540;9.268;2023-05-17T13:19:26;5.77;;;2.60;;
2644;SDS011;15377;48.540;9.268;2023-05-17T13:21:51;6.80;;;2.50;;
2644;SDS011;15377;48.540;9.268;2023-05-17T13:24:16;5.80;;;2.70;;
2644;SDS011;15377;48.540;9.268;2023-05-17T13:26:42;6.77;;;2.77;;
2644;SDS011;15377;48.540;9.268;2023-05-17T13:29:08;10.93;;;3.17;;
2644;SDS011;15377;48.540;9.268;2023-05-17T13:31:33;6.80;;;3.00;;
2644;SDS011;15377;48.540;9.268;2023-05-17T13:33:58;6.83;;;2.37;;
2644;SDS011;15377;48.540;9.268;2023-05-17T13:36:24;6.47;;;2.40;;
2644;SDS011;15377;48.540;9.268;2023-05-17T13:38:50;7.67;;;3.00;;
2644;SDS011;15377;48.540;9.268;2023-05-17T13:41:15;7.23;;;2.60;;
2644;SDS011;15377;48.540;9.268;2023-05-17T13:43:40;6.47;;;2.40;;
2644;SDS011;15377;48.540;9.268;2023-05-17T13:46:06;6.37;;;3.13;;
2644;SDS011;15377;48.540;9.268;2023-05-17T13:48:31;7.27;;;2.80;;
2644;SDS011;15377;48.540;9.268;2023-05-17T13:50:56;6.30;;;2.60;;
2644;SDS011;15377;48.540;9.268;2023-05-17T13:53:22;6.00;;;3.03;;
2644;SDS011;15377;48.540;9.268;2023-05-17T13:55:47;7.83;;;2.63;;
2644;SDS011;15377;48.540;9.268;2023-05-17T13:58:13;7.20;;;2.80;;
2644;SDS011;15377;48.540;9.268;2023-05-17T14:00:40;7.07;;;3.00;;
2644;SDS011;15377;48.540;9.268;2023-05-17T14:03:07;7.87;;;3.13;;
2644;SDS011;15377;48.540;9.268;2023-05-17T14:05:33;6.43;;;2.80;;
2644;SDS011;15377;48.540;9.268;2023-05-17T14:08:00;7.47;;;3.37;;
2644;SDS011;15377;48.540;9.268;2023-05-17T14:10:26;6.00;;;2.60;;
2644;SDS011;15377;48.540;9.268;2023-05-17T14:12:51;8.83;;;3.33;;
2644;SDS011;15377;48.540;9.268;2023-05-17T14:15:16;7.07;;;3.20;;
2644;SDS011;15377;48.540;9.268;2023-05-17T14:17:42;6.23;;;2.60;;
2644;SDS011;15377;48.540;9.268;2023-05-17T14:20:07;7.60;;;2.73;;
2644;SDS011;15377;48.540;9.268;2023-05-17T14:22:33;7.80;;;3.13;;
2644;SDS011;15377;48.540;9.268;2023-05-17T14:24:58;6.63;;;2.83;;
2644;SDS011;15377;48.540;9.268;2023-05-17T14:27:24;6.63;;;3.00;;
2644;SDS011;15377;48.540;9.268;2023-05-17T14:29:49;8.70;;;2.57;;
2644;SDS011;15377;48.540;9.268;2023-05-17T14:32:15;9.43;;;2.83;;
2644;SDS011;15377;48.540;9.268;2023-05-17T14:34:40;6.00;;;2.60;;
2644;SDS011;15377;48.540;9.268;2023-05-17T14:37:05;8.67;;;3.07;;
2644;SDS011;15377;48.540;9.268;2023-05-17T14:39:31;8.13;;;3.27;;
2644;SDS011;15377;48.540;9.268;2023-05-17T14:41:57;7.60;;;2.70;;
2644;SDS011;15377;48.540;9.268;2023-05-17T14:44:22;7.13;;;3.07;;
2644;SDS011;15377;48.540;9.268;2023-05-17T14:46:47;8.93;;;3.10;;
2644;SDS011;15377;48.540;9.268;2023-05-17T14:49:13;7.53;;;3.20;;
2644;SDS011;15377;48.540;9.268;2023-05-17T14:51:38;8.60;;;2.80;;
2644;SDS011;15377;48.540;9.268;2023-05-17T14:54:03;6.30;;;2.57;;
2644;SDS011;15377;48.540;9.268;2023-05-17T14:56:30;7.17;;;2.87;;
2644;SDS011;15377;48.540;9.268;2023-05-17T14:58:56;7.53;;;2.70;;
2644;SDS011;15377;48.540;9.268;2023-05-17T15:01:21;8.53;;;3.40;;
2644;SDS011;15377;48.540;9.268;2023-05-17T15:03:47;6.13;;;2.90;;
2644;SDS011;15377;48.540;9.268;2023-05-17T15:06:12;6.70;;;2.97;;
2644;SDS011;15377;48.540;9.268;2023-05-17T15:08:37;7.27;;;2.97;;
2644;SDS011;15377;48.540;9.268;2023-05-17T15:11:03;6.83;;;3.00;;
2644;SDS011;15377;48.540;9.268;2023-05-17T15:13:28;7.57;;;2.80;;
2644;SDS011;15377;48.540;9.268;2023-05-17T15:15:54;11.53;;;2.77;;
2644;SDS011;15377;48.540;9.268;2023-05-17T15:18:19;8.10;;;2.83;;
2644;SDS011;15377;48.540;9.268;2023-05-17T15:20:46;7.00;;;2.83;;